Canton Center, Connecticut
Current Conditions -  °F | °C
As of 2:51 PM on Thursday 30 Oct 2014 (Local Time) from KBDL Reporting Station
Broken Clouds Broken Clouds  
Wind Chill: 56°   Ceiling: 5500
Heat Index: 56°   Visibility: 10mi
Dew Point: 35°   Wind: 12mph
Humidity: 45%   Direction: 310°NW
Pressure: 29.94"   Gusts: NA
Location:  41.87°N, 72.91°W
Report Text: KBDL 301851Z 31010KT 10SM BKN055 13/02 A2994 RMK AO2 SLP138 T01330017
Loading
Personal Weather Stations






























Interactive Weather Map
Tropical Storm Tracking
New forecast layout! Learn more

10-Day Weather Forecast

Advertisements
Track Severe Weather on mobile